This is the latest recevied weather packets stored in our database for station/object N2VSB-13. If no packets are shown the sender has not sent any weather packets the latest 10 day(s).
| Time | Temp. | Humidity | Pressure | Rain* | Wind** | Luminosity | Snow |
|---|---|---|---|---|---|---|---|
| 1778084747 | 13.89° C | 100% | 1006.1 hPa | 2.54 mm | - | 53 W/m² | - |
| 1778077548 | 12.78° C | 99% | 1007.7 hPa | 1.78 mm | - | 34 W/m² | - |
| 1778075769 | 12.78° C | 99% | 1007.8 hPa | 1.78 mm | - | 29 W/m² | - |
| 1778075129 | 12.22° C | 99% | 1007.4 hPa | 2.54 mm | - | 24 W/m² | - |
| 1778073330 | 12.22° C | 99% | 1007.6 hPa | 2.29 mm | - | 30 W/m² | - |
| 1778070930 | 12.78° C | 98% | 1008.1 hPa | 0 mm | - | 23 W/m² | - |
| 1778069131 | 12.22° C | 98% | 1008.4 hPa | 0 mm | - | 23 W/m² | - |
| 1778065531 | 12.22° C | 98% | 1007.8 hPa | 0 mm | - | 21 W/m² | - |
| 1778060118 | 11.67° C | 97% | 1007.3 hPa | 0 mm | - | 0 W/m² | - |
| 1778058318 | 11.67° C | 96% | 1007.3 hPa | 0 mm | - | 0 W/m² | - |
| 1778055918 | 12.22° C | 95% | 1007.8 hPa | 0 mm | - | 0 W/m² | - |
| 1778054738 | 12.78° C | 95% | 1007.9 hPa | 0 mm | - | 0 W/m² | - |
| 1778052937 | 12.78° C | 94% | 1008.3 hPa | 0 mm | - | 0 W/m² | - |
| 1778049918 | 13.33° C | 97% | 1008.4 hPa | 0 mm | - | 0 W/m² | - |
| 1778048738 | 13.33° C | 97% | 1008.6 hPa | 0 mm | - | 0 W/m² | - |
| 1778037941 | 15.56° C | 97% | 1008.4 hPa | 0 mm | - | 0 W/m² | - |
| 1778031317 | 16.67° C | 88% | 1007.4 hPa | 0.25 mm | - | 0 W/m² | - |
| 1778024719 | 18.33° C | 76% | 1006.1 hPa | 0.25 mm | - | 5 W/m² | - |
| 1778024119 | 18.89° C | 74% | 1005.8 hPa | 0.25 mm | - | 8 W/m² | - |
| 1778016318 | 22.22° C | 61% | 1004.9 hPa | 0 mm | - | 43 W/m² | - |
| 1778015718 | 22.22° C | 63% | 1005.1 hPa | 0 mm | - | 13 W/m² | - |
| 1778015119 | 22.78° C | 63% | 1004.5 hPa | 0 mm | - | 11 W/m² | - |
| 1778014519 | 23.33° C | 62% | 1003.8 hPa | 0 mm | - | 28 W/m² | - |
| 1778012719 | 25° C | 50% | 1003.3 hPa | 0 mm | - | 121 W/m² | - |
| 1778010320 | 26.67° C | 40% | 1003.1 hPa | 0 mm | - | 79 W/m² | - |
* Rain latest hour (hover to see other rain measurements)
** Current wind speed in m/s (hover to see current wind gust speed)